sensor_id;sensor_type;location;lat;lon;timestamp;temperature;humidity
19999;DHT22;10160;50.926;4.374;2024-01-30T00:01:43;12.10;99.90
19999;DHT22;10160;50.926;4.374;2024-01-30T00:04:09;12.20;99.90
19999;DHT22;10160;50.926;4.374;2024-01-30T00:06:34;12.30;99.90
19999;DHT22;10160;50.926;4.374;2024-01-30T00:09:00;12.30;99.90
19999;DHT22;10160;50.926;4.374;2024-01-30T00:11:26;12.30;99.90
19999;DHT22;10160;50.926;4.374;2024-01-30T00:13:52;12.40;99.90
19999;DHT22;10160;50.926;4.374;2024-01-30T00:16:22;12.40;99.90
19999;DHT22;10160;50.926;4.374;2024-01-30T00:18:57;12.40;99.90
19999;DHT22;10160;50.926;4.374;2024-01-30T00:21:23;12.40;99.90
19999;DHT22;10160;50.926;4.374;2024-01-30T00:23:49;12.40;99.90
19999;DHT22;10160;50.926;4.374;2024-01-30T00:26:15;12.40;99.90
19999;DHT22;10160;50.926;4.374;2024-01-30T00:28:42;12.30;99.90
19999;DHT22;10160;50.926;4.374;2024-01-30T00:31:08;12.30;99.90
19999;DHT22;10160;50.926;4.374;2024-01-30T00:33:40;12.30;99.90
19999;DHT22;10160;50.926;4.374;2024-01-30T00:36:07;12.20;99.90
19999;DHT22;10160;50.926;4.374;2024-01-30T00:38:33;12.30;99.90
19999;DHT22;10160;50.926;4.374;2024-01-30T00:40:59;12.30;99.90
19999;DHT22;10160;50.926;4.374;2024-01-30T00:43:25;12.30;99.90
19999;DHT22;10160;50.926;4.374;2024-01-30T00:45:51;12.40;99.90
19999;DHT22;10160;50.926;4.374;2024-01-30T00:48:23;12.40;99.90
19999;DHT22;10160;50.926;4.374;2024-01-30T00:50:49;12.40;99.90
19999;DHT22;10160;50.926;4.374;2024-01-30T00:53:15;12.30;99.90
19999;DHT22;10160;50.926;4.374;2024-01-30T00:55:40;12.40;99.90
19999;DHT22;10160;50.926;4.374;2024-01-30T00:58:06;12.30;99.90
19999;DHT22;10160;50.926;4.374;2024-01-30T01:00:32;12.40;99.90
19999;DHT22;10160;50.926;4.374;2024-01-30T01:03:13;12.40;99.90
19999;DHT22;10160;50.926;4.374;2024-01-30T01:05:39;12.40;99.90
19999;DHT22;10160;50.926;4.374;2024-01-30T01:08:05;12.40;99.90
19999;DHT22;10160;50.926;4.374;2024-01-30T01:10:31;12.40;99.90
19999;DHT22;10160;50.926;4.374;2024-01-30T01:13:00;12.30;99.90
19999;DHT22;10160;50.926;4.374;2024-01-30T01:15:25;12.40;99.90
19999;DHT22;10160;50.926;4.374;2024-01-30T01:17:51;12.40;99.90
19999;DHT22;10160;50.926;4.374;2024-01-30T01:20:17;12.30;99.90
19999;DHT22;10160;50.926;4.374;2024-01-30T01:22:42;12.30;99.90
19999;DHT22;10160;50.926;4.374;2024-01-30T01:25:08;12.40;99.90
19999;DHT22;10160;50.926;4.374;2024-01-30T01:27:36;12.50;99.90
19999;DHT22;10160;50.926;4.374;2024-01-30T01:30:09;12.50;99.90
19999;DHT22;10160;50.926;4.374;2024-01-30T01:32:36;12.50;99.90
19999;DHT22;10160;50.926;4.374;2024-01-30T01:35:02;12.60;99.90
19999;DHT22;10160;50.926;4.374;2024-01-30T01:37:29;12.50;99.90
19999;DHT22;10160;50.926;4.374;2024-01-30T01:39:55;12.50;99.90
19999;DHT22;10160;50.926;4.374;2024-01-30T01:42:23;12.50;99.90
19999;DHT22;10160;50.926;4.374;2024-01-30T01:44:49;12.40;99.90
19999;DHT22;10160;50.926;4.374;2024-01-30T01:47:15;12.50;99.90
19999;DHT22;10160;50.926;4.374;2024-01-30T01:49:41;12.60;99.90
19999;DHT22;10160;50.926;4.374;2024-01-30T01:52:07;12.60;99.90
19999;DHT22;10160;50.926;4.374;2024-01-30T01:54:33;12.60;99.90
19999;DHT22;10160;50.926;4.374;2024-01-30T01:56:59;12.50;99.90
19999;DHT22;10160;50.926;4.374;2024-01-30T01:59:25;12.60;99.90
19999;DHT22;10160;50.926;4.374;2024-01-30T02:01:55;12.60;99.90
19999;DHT22;10160;50.926;4.374;2024-01-30T02:04:21;12.60;99.90
19999;DHT22;10160;50.926;4.374;2024-01-30T02:06:47;12.60;99.90
19999;DHT22;10160;50.926;4.374;2024-01-30T02:09:12;12.60;99.90
19999;DHT22;10160;50.926;4.374;2024-01-30T02:11:38;12.60;99.90
19999;DHT22;10160;50.926;4.374;2024-01-30T02:14:05;12.60;99.90
19999;DHT22;10160;50.926;4.374;2024-01-30T02:16:31;12.60;99.90
19999;DHT22;10160;50.926;4.374;2024-01-30T02:18:57;12.60;99.90
19999;DHT22;10160;50.926;4.374;2024-01-30T02:21:23;12.60;99.90
19999;DHT22;10160;50.926;4.374;2024-01-30T02:23:48;12.60;99.90
19999;DHT22;10160;50.926;4.374;2024-01-30T02:26:15;12.60;99.90
19999;DHT22;10160;50.926;4.374;2024-01-30T02:28:43;12.50;99.90
19999;DHT22;10160;50.926;4.374;2024-01-30T02:31:12;12.60;99.90
19999;DHT22;10160;50.926;4.374;2024-01-30T02:33:37;12.60;99.90
19999;DHT22;10160;50.926;4.374;2024-01-30T02:36:03;12.60;99.90
19999;DHT22;10160;50.926;4.374;2024-01-30T02:38:29;12.60;99.90
19999;DHT22;10160;50.926;4.374;2024-01-30T02:40:55;12.70;99.90
19999;DHT22;10160;50.926;4.374;2024-01-30T02:43:21;12.70;99.90
19999;DHT22;10160;50.926;4.374;2024-01-30T02:45:47;12.60;99.90
19999;DHT22;10160;50.926;4.374;2024-01-30T02:48:13;12.50;99.90
19999;DHT22;10160;50.926;4.374;2024-01-30T02:50:39;12.50;99.90
19999;DHT22;10160;50.926;4.374;2024-01-30T02:53:09;12.70;99.90
19999;DHT22;10160;50.926;4.374;2024-01-30T02:55:35;12.70;99.90
19999;DHT22;10160;50.926;4.374;2024-01-30T02:58:07;12.70;99.90
19999;DHT22;10160;50.926;4.374;2024-01-30T03:00:32;12.70;99.90
19999;DHT22;10160;50.926;4.374;2024-01-30T03:02:58;12.70;99.90
19999;DHT22;10160;50.926;4.374;2024-01-30T03:05:24;12.70;99.90
19999;DHT22;10160;50.926;4.374;2024-01-30T03:07:53;12.60;99.90
19999;DHT22;10160;50.926;4.374;2024-01-30T03:10:21;12.60;99.90
19999;DHT22;10160;50.926;4.374;2024-01-30T03:12:52;12.60;99.90
19999;DHT22;10160;50.926;4.374;2024-01-30T03:15:18;12.70;99.90
19999;DHT22;10160;50.926;4.374;2024-01-30T03:17:56;12.60;99.90
19999;DHT22;10160;50.926;4.374;2024-01-30T03:20:25;12.60;99.90
19999;DHT22;10160;50.926;4.374;2024-01-30T03:23:00;12.70;99.90
19999;DHT22;10160;50.926;4.374;2024-01-30T03:25:32;12.70;99.90
19999;DHT22;10160;50.926;4.374;2024-01-30T03:27:57;12.70;99.90
19999;DHT22;10160;50.926;4.374;2024-01-30T03:30:23;12.70;99.90
19999;DHT22;10160;50.926;4.374;2024-01-30T03:32:54;12.70;99.90
19999;DHT22;10160;50.926;4.374;2024-01-30T03:35:23;12.70;99.90
19999;DHT22;10160;50.926;4.374;2024-01-30T03:37:51;12.70;99.90
19999;DHT22;10160;50.926;4.374;2024-01-30T03:40:17;12.60;99.90
19999;DHT22;10160;50.926;4.374;2024-01-30T03:42:42;12.50;99.90
19999;DHT22;10160;50.926;4.374;2024-01-30T03:45:08;12.50;99.90
19999;DHT22;10160;50.926;4.374;2024-01-30T03:47:34;12.50;99.90
19999;DHT22;10160;50.926;4.374;2024-01-30T03:50:03;12.40;99.90
19999;DHT22;10160;50.926;4.374;2024-01-30T03:52:30;12.30;99.90
19999;DHT22;10160;50.926;4.374;2024-01-30T03:54:56;12.40;99.90
19999;DHT22;10160;50.926;4.374;2024-01-30T03:57:21;12.40;99.90
19999;DHT22;10160;50.926;4.374;2024-01-30T03:59:47;12.40;99.90
19999;DHT22;10160;50.926;4.374;2024-01-30T04:02:13;12.40;99.90
19999;DHT22;10160;50.926;4.374;2024-01-30T04:04:39;12.40;99.90
19999;DHT22;10160;50.926;4.374;2024-01-30T04:07:07;12.30;99.90
19999;DHT22;10160;50.926;4.374;2024-01-30T04:09:33;12.30;99.90
19999;DHT22;10160;50.926;4.374;2024-01-30T04:11:59;12.30;99.90
19999;DHT22;10160;50.926;4.374;2024-01-30T04:14:25;12.30;99.90
19999;DHT22;10160;50.926;4.374;2024-01-30T04:16:50;12.30;99.90
19999;DHT22;10160;50.926;4.374;2024-01-30T04:19:16;12.30;99.90
19999;DHT22;10160;50.926;4.374;2024-01-30T04:21:42;12.20;99.90
19999;DHT22;10160;50.926;4.374;2024-01-30T04:24:07;12.30;99.90
19999;DHT22;10160;50.926;4.374;2024-01-30T04:26:33;12.30;99.90
19999;DHT22;10160;50.926;4.374;2024-01-30T04:28:59;12.30;99.90
19999;DHT22;10160;50.926;4.374;2024-01-30T04:31:24;12.30;99.90
19999;DHT22;10160;50.926;4.374;2024-01-30T04:33:50;12.30;99.90
19999;DHT22;10160;50.926;4.374;2024-01-30T04:36:16;12.30;99.90
19999;DHT22;10160;50.926;4.374;2024-01-30T04:38:41;12.40;99.90
19999;DHT22;10160;50.926;4.374;2024-01-30T04:41:07;12.30;99.90
19999;DHT22;10160;50.926;4.374;2024-01-30T04:43:33;12.30;99.90
19999;DHT22;10160;50.926;4.374;2024-01-30T04:45:59;12.30;99.90
19999;DHT22;10160;50.926;4.374;2024-01-30T04:48:24;12.20;99.90
19999;DHT22;10160;50.926;4.374;2024-01-30T04:50:50;12.30;99.90
19999;DHT22;10160;50.926;4.374;2024-01-30T04:53:16;12.30;99.90
19999;DHT22;10160;50.926;4.374;2024-01-30T04:55:41;12.40;99.90
19999;DHT22;10160;50.926;4.374;2024-01-30T04:58:07;12.40;99.90
19999;DHT22;10160;50.926;4.374;2024-01-30T05:00:33;12.40;99.90
19999;DHT22;10160;50.926;4.374;2024-01-30T05:02:58;12.40;99.90
19999;DHT22;10160;50.926;4.374;2024-01-30T05:05:24;12.30;99.90
19999;DHT22;10160;50.926;4.374;2024-01-30T05:07:52;12.30;99.90
19999;DHT22;10160;50.926;4.374;2024-01-30T05:10:24;12.30;99.90
19999;DHT22;10160;50.926;4.374;2024-01-30T05:12:50;12.30;99.90
19999;DHT22;10160;50.926;4.374;2024-01-30T05:15:15;12.30;99.90
19999;DHT22;10160;50.926;4.374;2024-01-30T05:17:41;12.30;99.90
19999;DHT22;10160;50.926;4.374;2024-01-30T05:20:07;12.30;99.90
19999;DHT22;10160;50.926;4.374;2024-01-30T05:22:33;12.30;99.90
19999;DHT22;10160;50.926;4.374;2024-01-30T05:24:59;12.20;99.90
19999;DHT22;10160;50.926;4.374;2024-01-30T05:27:25;12.30;99.90
19999;DHT22;10160;50.926;4.374;2024-01-30T05:29:53;12.40;99.90
19999;DHT22;10160;50.926;4.374;2024-01-30T05:32:19;12.40;99.90
19999;DHT22;10160;50.926;4.374;2024-01-30T05:34:45;12.40;99.90
19999;DHT22;10160;50.926;4.374;2024-01-30T05:37:13;12.40;99.90
19999;DHT22;10160;50.926;4.374;2024-01-30T05:39:42;12.40;99.90
19999;DHT22;10160;50.926;4.374;2024-01-30T05:42:07;12.30;99.90
19999;DHT22;10160;50.926;4.374;2024-01-30T05:44:33;12.30;99.90
19999;DHT22;10160;50.926;4.374;2024-01-30T05:46:59;12.30;99.90
19999;DHT22;10160;50.926;4.374;2024-01-30T05:49:24;12.30;99.90
19999;DHT22;10160;50.926;4.374;2024-01-30T05:51:50;12.40;99.90
19999;DHT22;10160;50.926;4.374;2024-01-30T05:54:16;12.40;99.90
19999;DHT22;10160;50.926;4.374;2024-01-30T05:56:41;12.40;99.90
19999;DHT22;10160;50.926;4.374;2024-01-30T05:59:07;12.40;99.90
19999;DHT22;10160;50.926;4.374;2024-01-30T06:01:33;12.30;99.90
19999;DHT22;10160;50.926;4.374;2024-01-30T06:04:00;12.40;99.90
19999;DHT22;10160;50.926;4.374;2024-01-30T06:06:26;12.30;99.90
19999;DHT22;10160;50.926;4.374;2024-01-30T06:08:52;12.40;99.90
19999;DHT22;10160;50.926;4.374;2024-01-30T06:11:20;12.40;99.90
19999;DHT22;10160;50.926;4.374;2024-01-30T06:13:46;12.40;99.90
19999;DHT22;10160;50.926;4.374;2024-01-30T06:16:12;12.30;99.90
19999;DHT22;10160;50.926;4.374;2024-01-30T06:18:38;12.30;99.90
19999;DHT22;10160;50.926;4.374;2024-01-30T06:21:05;12.30;99.90
19999;DHT22;10160;50.926;4.374;2024-01-30T06:23:30;12.30;99.90
19999;DHT22;10160;50.926;4.374;2024-01-30T06:25:56;12.30;99.90
19999;DHT22;10160;50.926;4.374;2024-01-30T06:28:22;12.40;99.90
19999;DHT22;10160;50.926;4.374;2024-01-30T06:30:47;12.30;99.90
19999;DHT22;10160;50.926;4.374;2024-01-30T06:33:13;12.40;99.90
19999;DHT22;10160;50.926;4.374;2024-01-30T06:35:40;12.40;99.90
19999;DHT22;10160;50.926;4.374;2024-01-30T06:38:06;12.40;99.90
19999;DHT22;10160;50.926;4.374;2024-01-30T06:40:32;12.30;99.90
19999;DHT22;10160;50.926;4.374;2024-01-30T06:42:57;12.40;99.90
19999;DHT22;10160;50.926;4.374;2024-01-30T06:45:23;12.40;99.90
19999;DHT22;10160;50.926;4.374;2024-01-30T06:47:48;12.40;99.90
19999;DHT22;10160;50.926;4.374;2024-01-30T06:50:14;12.30;99.90
19999;DHT22;10160;50.926;4.374;2024-01-30T06:52:40;12.30;99.90
19999;DHT22;10160;50.926;4.374;2024-01-30T06:55:06;12.40;99.90
19999;DHT22;10160;50.926;4.374;2024-01-30T06:57:31;12.40;99.90
19999;DHT22;10160;50.926;4.374;2024-01-30T06:59:57;12.30;99.90
19999;DHT22;10160;50.926;4.374;2024-01-30T07:02:23;12.40;99.90
19999;DHT22;10160;50.926;4.374;2024-01-30T07:04:49;12.30;99.90
19999;DHT22;10160;50.926;4.374;2024-01-30T07:07:15;12.30;99.90
19999;DHT22;10160;50.926;4.374;2024-01-30T07:09:41;12.40;99.90
19999;DHT22;10160;50.926;4.374;2024-01-30T07:12:07;12.40;99.90
19999;DHT22;10160;50.926;4.374;2024-01-30T07:14:33;12.40;99.90
19999;DHT22;10160;50.926;4.374;2024-01-30T07:16:58;12.40;99.90
19999;DHT22;10160;50.926;4.374;2024-01-30T07:19:24;12.30;99.90
19999;DHT22;10160;50.926;4.374;2024-01-30T07:21:50;12.30;99.90
19999;DHT22;10160;50.926;4.374;2024-01-30T07:24:19;12.30;99.90
19999;DHT22;10160;50.926;4.374;2024-01-30T07:26:44;12.30;99.90
19999;DHT22;10160;50.926;4.374;2024-01-30T07:29:10;12.40;99.90
19999;DHT22;10160;50.926;4.374;2024-01-30T07:31:36;12.30;99.90
19999;DHT22;10160;50.926;4.374;2024-01-30T07:34:01;12.20;99.90
19999;DHT22;10160;50.926;4.374;2024-01-30T07:36:28;12.20;99.90
19999;DHT22;10160;50.926;4.374;2024-01-30T07:38:53;12.20;99.90
19999;DHT22;10160;50.926;4.374;2024-01-30T07:41:25;12.20;99.90
19999;DHT22;10160;50.926;4.374;2024-01-30T07:43:51;12.20;99.90
19999;DHT22;10160;50.926;4.374;2024-01-30T07:46:16;12.20;99.90
19999;DHT22;10160;50.926;4.374;2024-01-30T07:48:42;12.20;99.90
19999;DHT22;10160;50.926;4.374;2024-01-30T07:51:08;12.20;99.90
19999;DHT22;10160;50.926;4.374;2024-01-30T07:53:33;12.20;99.90
19999;DHT22;10160;50.926;4.374;2024-01-30T07:55:59;12.20;99.90
19999;DHT22;10160;50.926;4.374;2024-01-30T07:58:25;12.20;99.90
19999;DHT22;10160;50.926;4.374;2024-01-30T08:00:52;12.20;99.90
19999;DHT22;10160;50.926;4.374;2024-01-30T08:03:19;12.20;99.90
19999;DHT22;10160;50.926;4.374;2024-01-30T08:05:46;12.10;99.90
19999;DHT22;10160;50.926;4.374;2024-01-30T08:08:12;12.10;99.90
19999;DHT22;10160;50.926;4.374;2024-01-30T08:10:38;12.10;99.90
19999;DHT22;10160;50.926;4.374;2024-01-30T08:13:04;12.10;99.90
19999;DHT22;10160;50.926;4.374;2024-01-30T08:15:29;12.20;99.90
19999;DHT22;10160;50.926;4.374;2024-01-30T08:17:58;12.10;99.90
19999;DHT22;10160;50.926;4.374;2024-01-30T08:20:25;12.00;99.90
19999;DHT22;10160;50.926;4.374;2024-01-30T08:22:51;12.00;99.90
19999;DHT22;10160;50.926;4.374;2024-01-30T08:25:17;12.20;99.90
19999;DHT22;10160;50.926;4.374;2024-01-30T08:27:42;12.00;99.90
19999;DHT22;10160;50.926;4.374;2024-01-30T08:30:11;12.10;99.90
19999;DHT22;10160;50.926;4.374;2024-01-30T08:32:37;12.20;99.90
19999;DHT22;10160;50.926;4.374;2024-01-30T08:35:03;12.20;99.90
19999;DHT22;10160;50.926;4.374;2024-01-30T08:37:29;12.10;99.90
19999;DHT22;10160;50.926;4.374;2024-01-30T08:39:55;12.10;99.90
19999;DHT22;10160;50.926;4.374;2024-01-30T08:42:21;12.20;99.90
19999;DHT22;10160;50.926;4.374;2024-01-30T08:44:50;12.10;99.90
19999;DHT22;10160;50.926;4.374;2024-01-30T08:47:17;12.20;99.90
19999;DHT22;10160;50.926;4.374;2024-01-30T08:49:44;12.20;99.90
19999;DHT22;10160;50.926;4.374;2024-01-30T08:52:10;12.30;99.90
19999;DHT22;10160;50.926;4.374;2024-01-30T08:54:36;12.20;99.90
19999;DHT22;10160;50.926;4.374;2024-01-30T08:57:05;12.20;99.90
19999;DHT22;10160;50.926;4.374;2024-01-30T08:59:31;12.20;99.90
19999;DHT22;10160;50.926;4.374;2024-01-30T09:01:56;12.30;99.90
19999;DHT22;10160;50.926;4.374;2024-01-30T09:04:24;12.30;99.90
19999;DHT22;10160;50.926;4.374;2024-01-30T09:06:50;12.40;99.90
19999;DHT22;10160;50.926;4.374;2024-01-30T09:09:16;12.40;99.90
19999;DHT22;10160;50.926;4.374;2024-01-30T09:11:41;12.20;99.90
19999;DHT22;10160;50.926;4.374;2024-01-30T09:14:07;12.20;99.90
19999;DHT22;10160;50.926;4.374;2024-01-30T09:16:33;12.40;99.90
19999;DHT22;10160;50.926;4.374;2024-01-30T09:19:02;12.40;99.90
19999;DHT22;10160;50.926;4.374;2024-01-30T09:21:27;12.40;99.90
19999;DHT22;10160;50.926;4.374;2024-01-30T09:24:02;12.40;99.90
19999;DHT22;10160;50.926;4.374;2024-01-30T09:26:30;12.30;99.90
19999;DHT22;10160;50.926;4.374;2024-01-30T09:28:56;12.30;99.90
19999;DHT22;10160;50.926;4.374;2024-01-30T09:31:22;12.20;99.90
19999;DHT22;10160;50.926;4.374;2024-01-30T09:33:53;12.20;99.90
19999;DHT22;10160;50.926;4.374;2024-01-30T09:36:28;12.20;99.90
19999;DHT22;10160;50.926;4.374;2024-01-30T09:38:54;12.20;99.90
19999;DHT22;10160;50.926;4.374;2024-01-30T09:41:26;12.20;99.90
19999;DHT22;10160;50.926;4.374;2024-01-30T09:43:54;12.20;99.90
19999;DHT22;10160;50.926;4.374;2024-01-30T09:46:23;12.30;99.90
19999;DHT22;10160;50.926;4.374;2024-01-30T09:48:58;12.30;99.90
19999;DHT22;10160;50.926;4.374;2024-01-30T09:51:24;12.20;99.90
19999;DHT22;10160;50.926;4.374;2024-01-30T09:53:51;12.10;99.90
19999;DHT22;10160;50.926;4.374;2024-01-30T09:56:18;12.00;99.90
19999;DHT22;10160;50.926;4.374;2024-01-30T09:58:44;12.10;99.90
19999;DHT22;10160;50.926;4.374;2024-01-30T10:01:10;12.00;99.90
19999;DHT22;10160;50.926;4.374;2024-01-30T10:03:36;12.10;99.90
19999;DHT22;10160;50.926;4.374;2024-01-30T10:06:01;12.10;99.90
19999;DHT22;10160;50.926;4.374;2024-01-30T10:08:28;12.00;99.90
19999;DHT22;10160;50.926;4.374;2024-01-30T10:10:55;11.90;99.90
19999;DHT22;10160;50.926;4.374;2024-01-30T10:13:26;11.90;99.90
19999;DHT22;10160;50.926;4.374;2024-01-30T10:15:52;12.00;99.90
19999;DHT22;10160;50.926;4.374;2024-01-30T10:18:18;12.00;99.90
19999;DHT22;10160;50.926;4.374;2024-01-30T10:20:44;12.00;99.90
19999;DHT22;10160;50.926;4.374;2024-01-30T10:23:19;12.00;99.90
19999;DHT22;10160;50.926;4.374;2024-01-30T10:25:45;12.00;99.90
19999;DHT22;10160;50.926;4.374;2024-01-30T10:28:11;12.10;99.90
19999;DHT22;10160;50.926;4.374;2024-01-30T10:30:37;12.20;99.90
19999;DHT22;10160;50.926;4.374;2024-01-30T10:33:05;12.30;99.90
19999;DHT22;10160;50.926;4.374;2024-01-30T10:35:31;12.40;99.90
19999;DHT22;10160;50.926;4.374;2024-01-30T10:38:00;12.40;99.90
19999;DHT22;10160;50.926;4.374;2024-01-30T10:40:29;12.30;99.90
19999;DHT22;10160;50.926;4.374;2024-01-30T10:42:55;12.30;99.90
19999;DHT22;10160;50.926;4.374;2024-01-30T10:45:28;12.30;99.90
19999;DHT22;10160;50.926;4.374;2024-01-30T10:47:55;12.10;99.90
19999;DHT22;10160;50.926;4.374;2024-01-30T10:50:24;12.10;99.90
19999;DHT22;10160;50.926;4.374;2024-01-30T10:53:00;12.20;99.90
19999;DHT22;10160;50.926;4.374;2024-01-30T10:55:28;12.20;99.90
19999;DHT22;10160;50.926;4.374;2024-01-30T10:57:54;12.30;99.90
19999;DHT22;10160;50.926;4.374;2024-01-30T11:00:22;12.40;99.90
19999;DHT22;10160;50.926;4.374;2024-01-30T11:02:50;12.30;99.90
19999;DHT22;10160;50.926;4.374;2024-01-30T11:05:28;12.20;99.90
19999;DHT22;10160;50.926;4.374;2024-01-30T11:07:54;12.30;99.90
19999;DHT22;10160;50.926;4.374;2024-01-30T11:10:20;12.30;99.90
19999;DHT22;10160;50.926;4.374;2024-01-30T11:12:46;12.30;99.90
19999;DHT22;10160;50.926;4.374;2024-01-30T11:15:13;12.20;99.90
19999;DHT22;10160;50.926;4.374;2024-01-30T11:18:00;12.20;99.90
19999;DHT22;10160;50.926;4.374;2024-01-30T11:20:29;12.30;99.90
19999;DHT22;10160;50.926;4.374;2024-01-30T11:22:58;12.30;99.90
19999;DHT22;10160;50.926;4.374;2024-01-30T11:25:25;12.20;99.90
19999;DHT22;10160;50.926;4.374;2024-01-30T11:27:55;12.10;99.90
19999;DHT22;10160;50.926;4.374;2024-01-30T11:30:30;12.10;99.90
19999;DHT22;10160;50.926;4.374;2024-01-30T11:33:00;12.40;99.90
19999;DHT22;10160;50.926;4.374;2024-01-30T11:35:26;12.60;99.90
19999;DHT22;10160;50.926;4.374;2024-01-30T11:37:52;12.60;99.90
19999;DHT22;10160;50.926;4.374;2024-01-30T11:40:19;12.50;99.90
19999;DHT22;10160;50.926;4.374;2024-01-30T11:42:45;12.80;99.90
19999;DHT22;10160;50.926;4.374;2024-01-30T11:45:12;12.70;99.90
19999;DHT22;10160;50.926;4.374;2024-01-30T11:47:38;12.50;99.90
19999;DHT22;10160;50.926;4.374;2024-01-30T11:50:04;12.30;99.90
19999;DHT22;10160;50.926;4.374;2024-01-30T11:52:34;12.30;99.90
19999;DHT22;10160;50.926;4.374;2024-01-30T11:55:00;12.10;99.90
19999;DHT22;10160;50.926;4.374;2024-01-30T11:57:29;12.00;99.90
19999;DHT22;10160;50.926;4.374;2024-01-30T11:59:58;12.00;99.90
19999;DHT22;10160;50.926;4.374;2024-01-30T12:02:23;11.80;99.90
19999;DHT22;10160;50.926;4.374;2024-01-30T12:04:49;11.90;99.90
19999;DHT22;10160;50.926;4.374;2024-01-30T12:07:14;12.20;99.90
19999;DHT22;10160;50.926;4.374;2024-01-30T12:09:53;12.20;99.90
19999;DHT22;10160;50.926;4.374;2024-01-30T12:12:21;12.20;99.90
19999;DHT22;10160;50.926;4.374;2024-01-30T12:14:47;12.10;99.90
19999;DHT22;10160;50.926;4.374;2024-01-30T12:17:23;12.50;99.90
19999;DHT22;10160;50.926;4.374;2024-01-30T12:20:02;12.60;99.90
19999;DHT22;10160;50.926;4.374;2024-01-30T12:22:27;13.00;99.90
19999;DHT22;10160;50.926;4.374;2024-01-30T12:24:53;14.20;99.90
19999;DHT22;10160;50.926;4.374;2024-01-30T12:27:31;13.70;99.90
19999;DHT22;10160;50.926;4.374;2024-01-30T12:29:57;13.20;99.90
19999;DHT22;10160;50.926;4.374;2024-01-30T12:32:23;12.50;99.90
19999;DHT22;10160;50.926;4.374;2024-01-30T12:34:49;12.20;99.90
19999;DHT22;10160;50.926;4.374;2024-01-30T12:37:15;12.00;99.90
19999;DHT22;10160;50.926;4.374;2024-01-30T12:39:47;11.60;99.90
19999;DHT22;10160;50.926;4.374;2024-01-30T12:42:18;11.50;99.90
19999;DHT22;10160;50.926;4.374;2024-01-30T12:44:50;11.70;99.90
19999;DHT22;10160;50.926;4.374;2024-01-30T12:47:16;12.00;99.90
19999;DHT22;10160;50.926;4.374;2024-01-30T12:49:45;12.00;99.90
19999;DHT22;10160;50.926;4.374;2024-01-30T12:52:21;12.10;99.90
19999;DHT22;10160;50.926;4.374;2024-01-30T12:54:48;12.80;99.90
19999;DHT22;10160;50.926;4.374;2024-01-30T12:57:14;13.80;99.90
19999;DHT22;10160;50.926;4.374;2024-01-30T12:59:39;13.70;99.90
19999;DHT22;10160;50.926;4.374;2024-01-30T13:02:08;13.60;99.90
19999;DHT22;10160;50.926;4.374;2024-01-30T13:04:34;14.60;99.90
19999;DHT22;10160;50.926;4.374;2024-01-30T13:07:00;15.40;99.90
19999;DHT22;10160;50.926;4.374;2024-01-30T13:09:35;16.00;99.90
19999;DHT22;10160;50.926;4.374;2024-01-30T13:12:01;16.00;99.90
19999;DHT22;10160;50.926;4.374;2024-01-30T13:14:26;14.70;99.90
19999;DHT22;10160;50.926;4.374;2024-01-30T13:16:52;14.00;99.90
19999;DHT22;10160;50.926;4.374;2024-01-30T13:19:18;13.40;99.90
19999;DHT22;10160;50.926;4.374;2024-01-30T13:21:44;13.10;99.90
19999;DHT22;10160;50.926;4.374;2024-01-30T13:24:13;13.00;99.90
19999;DHT22;10160;50.926;4.374;2024-01-30T13:26:38;12.80;99.90
19999;DHT22;10160;50.926;4.374;2024-01-30T13:29:07;13.00;99.90
19999;DHT22;10160;50.926;4.374;2024-01-30T13:31:32;13.30;99.90
19999;DHT22;10160;50.926;4.374;2024-01-30T13:33:58;13.00;99.90
19999;DHT22;10160;50.926;4.374;2024-01-30T13:36:24;12.70;99.90
19999;DHT22;10160;50.926;4.374;2024-01-30T13:38:49;12.60;99.90
19999;DHT22;10160;50.926;4.374;2024-01-30T13:41:15;12.40;99.90
19999;DHT22;10160;50.926;4.374;2024-01-30T13:43:43;12.40;99.90
19999;DHT22;10160;50.926;4.374;2024-01-30T13:46:08;12.10;99.90
19999;DHT22;10160;50.926;4.374;2024-01-30T13:48:43;12.00;99.90
19999;DHT22;10160;50.926;4.374;2024-01-30T13:51:09;11.80;99.90
19999;DHT22;10160;50.926;4.374;2024-01-30T13:53:36;11.80;99.90
19999;DHT22;10160;50.926;4.374;2024-01-30T13:56:02;11.80;99.90
19999;DHT22;10160;50.926;4.374;2024-01-30T13:58:30;11.70;99.90
19999;DHT22;10160;50.926;4.374;2024-01-30T14:00:59;11.60;99.90
19999;DHT22;10160;50.926;4.374;2024-01-30T14:03:24;11.60;99.90
19999;DHT22;10160;50.926;4.374;2024-01-30T14:05:50;11.50;99.90
19999;DHT22;10160;50.926;4.374;2024-01-30T14:08:16;11.50;99.90
19999;DHT22;10160;50.926;4.374;2024-01-30T14:10:44;11.50;99.90
19999;DHT22;10160;50.926;4.374;2024-01-30T14:13:13;11.60;99.90
19999;DHT22;10160;50.926;4.374;2024-01-30T14:15:45;11.60;99.90
19999;DHT22;10160;50.926;4.374;2024-01-30T14:18:17;11.50;99.90
19999;DHT22;10160;50.926;4.374;2024-01-30T14:20:45;11.50;99.90
19999;DHT22;10160;50.926;4.374;2024-01-30T14:23:11;11.50;99.90
19999;DHT22;10160;50.926;4.374;2024-01-30T14:25:36;11.40;99.90
19999;DHT22;10160;50.926;4.374;2024-01-30T14:28:11;11.30;99.90
19999;DHT22;10160;50.926;4.374;2024-01-30T14:30:47;11.20;99.90
19999;DHT22;10160;50.926;4.374;2024-01-30T14:33:15;11.20;99.90
19999;DHT22;10160;50.926;4.374;2024-01-30T14:35:43;11.20;99.90
19999;DHT22;10160;50.926;4.374;2024-01-30T14:38:09;11.00;99.90
19999;DHT22;10160;50.926;4.374;2024-01-30T14:40:35;11.00;99.90
19999;DHT22;10160;50.926;4.374;2024-01-30T14:43:01;10.90;99.90
19999;DHT22;10160;50.926;4.374;2024-01-30T14:45:26;11.00;99.90
19999;DHT22;10160;50.926;4.374;2024-01-30T14:47:55;10.90;99.90
19999;DHT22;10160;50.926;4.374;2024-01-30T14:50:27;10.80;99.90
19999;DHT22;10160;50.926;4.374;2024-01-30T14:52:54;10.70;99.90
19999;DHT22;10160;50.926;4.374;2024-01-30T14:55:22;10.80;99.90
19999;DHT22;10160;50.926;4.374;2024-01-30T14:57:47;10.70;99.90
19999;DHT22;10160;50.926;4.374;2024-01-30T15:00:15;10.80;99.90
19999;DHT22;10160;50.926;4.374;2024-01-30T15:02:41;10.70;99.90
19999;DHT22;10160;50.926;4.374;2024-01-30T15:05:06;10.80;99.90
19999;DHT22;10160;50.926;4.374;2024-01-30T15:07:32;10.70;99.90
19999;DHT22;10160;50.926;4.374;2024-01-30T15:10:02;10.80;99.90
19999;DHT22;10160;50.926;4.374;2024-01-30T15:12:28;10.70;99.90
19999;DHT22;10160;50.926;4.374;2024-01-30T15:14:54;10.80;99.90
19999;DHT22;10160;50.926;4.374;2024-01-30T15:17:23;10.80;99.90
19999;DHT22;10160;50.926;4.374;2024-01-30T15:19:51;10.70;99.90
19999;DHT22;10160;50.926;4.374;2024-01-30T15:22:17;10.70;99.90
19999;DHT22;10160;50.926;4.374;2024-01-30T15:24:43;10.70;99.90
19999;DHT22;10160;50.926;4.374;2024-01-30T15:27:08;10.70;99.90
19999;DHT22;10160;50.926;4.374;2024-01-30T15:29:37;10.60;99.90